createdAt,value
2019-03-28T00:00:30.059Z,7.70
2019-03-28T00:02:59.204Z,11.83
2019-03-28T00:05:28.355Z,11.68
2019-03-28T00:07:57.509Z,13.93
2019-03-28T00:10:26.653Z,10.55
2019-03-28T00:12:55.790Z,10.85
2019-03-28T00:15:24.941Z,10.70
2019-03-28T00:17:54.070Z,9.43
2019-03-28T00:20:23.233Z,15.23
2019-03-28T00:22:56.710Z,12.28
2019-03-28T00:25:26.830Z,11.23
2019-03-28T00:27:55.974Z,13.88
2019-03-28T00:30:25.125Z,12.45
2019-03-28T00:32:54.424Z,9.50
2019-03-28T00:35:23.619Z,14.38
2019-03-28T00:37:52.896Z,12.88
2019-03-28T00:40:22.044Z,14.05
2019-03-28T00:42:51.268Z,14.98
2019-03-28T00:45:20.409Z,13.18
2019-03-28T00:47:49.554Z,13.60
2019-03-28T00:50:18.717Z,12.33
2019-03-28T00:52:47.845Z,14.33
2019-03-28T00:55:17.058Z,11.15
2019-03-28T00:57:46.234Z,12.47
2019-03-28T01:00:15.810Z,14.23
2019-03-28T01:02:44.967Z,14.43
2019-03-28T01:05:14.175Z,11.33
2019-03-28T01:07:43.503Z,17.25
2019-03-28T01:10:12.648Z,14.93
2019-03-28T01:12:41.807Z,15.43
2019-03-28T01:15:10.961Z,15.63
2019-03-28T01:17:40.106Z,15.90
2019-03-28T01:20:09.233Z,19.10
2019-03-28T01:22:38.381Z,15.13
2019-03-28T01:25:07.517Z,17.15
2019-03-28T01:27:37.738Z,20.30
2019-03-28T01:30:07.346Z,25.52
2019-03-28T01:32:36.494Z,21.62
2019-03-28T01:35:05.706Z,20.95
2019-03-28T01:37:34.859Z,21.97
2019-03-28T01:40:05.554Z,24.27
2019-03-28T01:42:34.709Z,18.98
2019-03-28T01:45:05.890Z,17.50
2019-03-28T01:47:35.038Z,21.70
2019-03-28T01:50:15.874Z,18.30
2019-03-28T01:52:45.025Z,23.87
2019-03-28T01:55:14.183Z,23.75
2019-03-28T01:57:43.334Z,18.35
2019-03-28T02:00:12.606Z,21.77
2019-03-28T02:02:41.802Z,20.70
2019-03-28T02:05:10.950Z,22.77
2019-03-28T02:07:40.113Z,22.73
2019-03-28T02:10:09.248Z,24.55
2019-03-28T02:12:38.402Z,25.90
2019-03-28T02:15:08.922Z,25.30
2019-03-28T02:17:38.073Z,21.82
2019-03-28T02:20:08.060Z,19.50
2019-03-28T02:22:37.219Z,22.62
2019-03-28T02:25:06.827Z,23.52
2019-03-28T02:27:35.978Z,27.90
2019-03-28T02:30:08.028Z,29.82
2019-03-28T02:32:37.498Z,27.85
2019-03-28T02:35:06.643Z,29.82
2019-03-28T02:37:35.873Z,25.92
2019-03-28T02:40:07.060Z,26.65
2019-03-28T02:42:36.283Z,29.50
2019-03-28T02:45:06.277Z,32.03
2019-03-28T02:47:36.502Z,27.20
2019-03-28T02:50:06.198Z,28.60
2019-03-28T02:52:35.361Z,31.23
2019-03-28T02:55:06.639Z,26.80
2019-03-28T02:57:41.547Z,26.17
2019-03-28T03:00:07.092Z,25.27
2019-03-28T03:02:37.326Z,29.95
2019-03-28T03:05:08.065Z,29.18
2019-03-28T03:07:37.267Z,32.23
2019-03-28T03:10:07.248Z,33.60
2019-03-28T03:12:36.485Z,27.10
2019-03-28T03:15:06.676Z,29.25
2019-03-28T03:17:35.863Z,28.10
2019-03-28T03:20:06.796Z,30.50
2019-03-28T03:22:35.983Z,29.27
2019-03-28T03:25:08.345Z,31.85
2019-03-28T03:27:38.595Z,34.23
2019-03-28T03:30:07.844Z,34.20
2019-03-28T03:32:37.111Z,27.52
2019-03-28T03:35:06.356Z,28.70
2019-03-28T03:37:35.614Z,25.57
2019-03-28T03:40:08.278Z,26.40
2019-03-28T03:42:37.424Z,28.55
2019-03-28T03:45:09.050Z,31.25
2019-03-28T03:47:38.286Z,23.27
2019-03-28T03:50:07.672Z,22.20
2019-03-28T03:52:36.819Z,26.50
2019-03-28T03:55:06.960Z,26.73
2019-03-28T03:57:36.114Z,26.77
2019-03-28T04:00:08.287Z,24.10
2019-03-28T04:02:37.426Z,25.10
2019-03-28T04:05:06.855Z,27.30
2019-03-28T04:07:36.973Z,28.35
2019-03-28T04:10:06.396Z,28.42
2019-03-28T04:12:35.612Z,29.32
2019-03-28T04:15:05.643Z,27.48
2019-03-28T04:17:34.850Z,29.18
2019-03-28T04:20:06.153Z,25.12
2019-03-28T04:22:36.830Z,27.52
2019-03-28T04:25:06.247Z,25.60
2019-03-28T04:27:35.385Z,28.85
2019-03-28T04:30:07.009Z,26.60
2019-03-28T04:32:36.158Z,27.13
2019-03-28T04:35:05.951Z,27.75
2019-03-28T04:37:36.083Z,28.62
2019-03-28T04:40:07.030Z,26.10
2019-03-28T04:42:36.174Z,29.77
2019-03-28T04:45:05.749Z,27.73
2019-03-28T04:47:34.967Z,30.52
2019-03-28T04:50:05.004Z,23.02
2019-03-28T04:52:34.212Z,26.45
2019-03-28T04:55:03.830Z,32.05
2019-03-28T04:57:34.068Z,31.50
2019-03-28T05:00:03.359Z,27.45
2019-03-28T05:02:32.606Z,27.73
2019-03-28T05:05:01.824Z,24.65
2019-03-28T05:07:32.665Z,26.70
2019-03-28T05:10:01.830Z,32.65
2019-03-28T05:12:30.982Z,36.00
2019-03-28T05:15:00.373Z,32.38
2019-03-28T05:17:29.533Z,35.03
2019-03-28T05:19:58.689Z,31.27
2019-03-28T05:22:27.825Z,34.08
2019-03-28T05:24:57.028Z,31.73
2019-03-28T05:27:26.506Z,31.82
2019-03-28T05:29:55.670Z,34.50
2019-03-28T05:32:24.812Z,28.62
2019-03-28T05:34:53.968Z,28.90
2019-03-28T05:37:23.110Z,30.27
2019-03-28T05:39:52.264Z,37.20
2019-03-28T05:42:21.404Z,37.75
2019-03-28T05:44:50.563Z,37.90
2019-03-28T05:47:22.055Z,38.10
2019-03-28T05:49:50.594Z,43.40
2019-03-28T05:52:19.729Z,32.23
2019-03-28T05:54:48.866Z,35.10
2019-03-28T05:57:18.044Z,35.05
2019-03-28T05:59:47.182Z,33.20
2019-03-28T06:02:16.406Z,37.28
2019-03-28T06:04:45.542Z,32.50
2019-03-28T06:07:14.698Z,29.42
2019-03-28T06:09:44.513Z,32.55
2019-03-28T06:12:13.797Z,35.95
2019-03-28T06:14:42.946Z,34.25
2019-03-28T06:17:12.189Z,38.30
2019-03-28T06:19:41.356Z,35.15
2019-03-28T06:22:10.503Z,38.98
2019-03-28T06:24:39.650Z,30.23
2019-03-28T06:27:08.806Z,30.30
2019-03-28T06:29:37.953Z,31.40
2019-03-28T06:32:07.110Z,32.30
2019-03-28T06:34:36.322Z,36.23
2019-03-28T06:37:06.409Z,34.78
2019-03-28T06:39:36.643Z,35.05
2019-03-28T06:42:05.939Z,38.08
2019-03-28T06:44:35.074Z,37.50
2019-03-28T06:47:04.249Z,38.63
2019-03-28T06:49:33.431Z,36.70
2019-03-28T06:52:02.578Z,35.70
2019-03-28T06:54:31.719Z,36.10
2019-03-28T06:57:00.876Z,40.90
2019-03-28T06:59:37.378Z,37.53
2019-03-28T07:02:02.771Z,32.78
2019-03-28T07:04:33.252Z,33.10
2019-03-28T07:07:02.467Z,38.90
2019-03-28T07:09:31.624Z,34.35
2019-03-28T07:12:00.834Z,32.13
2019-03-28T07:14:29.963Z,32.63
2019-03-28T07:16:59.123Z,35.10
2019-03-28T07:19:28.258Z,33.67
2019-03-28T07:21:58.557Z,38.90
2019-03-28T07:24:27.712Z,32.40
2019-03-28T07:26:58.118Z,29.60
2019-03-28T07:29:27.255Z,41.98
2019-03-28T07:31:56.414Z,30.32
2019-03-28T07:34:25.558Z,34.67
2019-03-28T07:36:54.727Z,35.35
2019-03-28T07:39:23.872Z,32.78
2019-03-28T07:41:53.034Z,29.75
2019-03-28T07:44:22.188Z,32.20
2019-03-28T07:46:51.361Z,33.53
2019-03-28T07:49:20.503Z,30.80
2019-03-28T07:51:49.666Z,32.05
2019-03-28T07:54:18.827Z,30.12
2019-03-28T07:56:48.003Z,30.30
2019-03-28T07:59:17.139Z,26.97
2019-03-28T08:01:46.302Z,27.98
2019-03-28T08:04:15.455Z,25.55
2019-03-28T08:06:50.042Z,26.62
2019-03-28T08:09:17.598Z,27.30
2019-03-28T08:11:48.182Z,28.70
2019-03-28T08:14:17.186Z,25.77
2019-03-28T08:16:46.340Z,25.27
2019-03-28T08:19:15.507Z,32.90
2019-03-28T08:21:44.662Z,24.72
2019-03-28T08:24:13.822Z,33.85
2019-03-28T08:26:42.974Z,26.45
2019-03-28T08:29:12.378Z,28.90
2019-03-28T08:31:43.252Z,26.68
2019-03-28T08:34:12.405Z,29.20
2019-03-28T08:36:41.558Z,27.45
2019-03-28T08:39:10.720Z,28.60
2019-03-28T08:41:39.858Z,28.32
2019-03-28T08:44:09.056Z,31.42
2019-03-28T08:46:38.242Z,30.62
2019-03-28T08:49:07.416Z,29.42
2019-03-28T08:51:36.571Z,28.00
2019-03-28T08:54:05.791Z,26.73
2019-03-28T08:56:34.948Z,26.52
2019-03-28T08:59:05.082Z,29.18
2019-03-28T09:01:34.266Z,26.73
2019-03-28T09:04:03.468Z,27.93
2019-03-28T09:06:33.609Z,24.40
2019-03-28T09:09:02.766Z,25.25
2019-03-28T09:11:32.183Z,26.70
2019-03-28T09:14:01.414Z,25.55
2019-03-28T09:16:30.558Z,25.45
2019-03-28T09:18:59.784Z,22.85
2019-03-28T09:21:29.054Z,23.15
2019-03-28T09:23:58.283Z,22.85
2019-03-28T09:26:27.426Z,20.08
2019-03-28T09:28:56.594Z,26.90
2019-03-28T09:31:25.736Z,22.82
2019-03-28T09:33:54.911Z,22.50
2019-03-28T09:36:24.055Z,27.22
2019-03-28T09:38:53.289Z,22.07
2019-03-28T09:41:22.435Z,22.70
2019-03-28T09:43:55.591Z,22.95
2019-03-28T09:46:22.602Z,19.65
2019-03-28T09:48:52.727Z,20.08
2019-03-28T09:51:21.943Z,20.77
2019-03-28T09:53:51.107Z,19.85
2019-03-28T09:56:20.253Z,18.50
2019-03-28T09:58:49.418Z,20.02
2019-03-28T10:01:18.665Z,19.85
2019-03-28T10:03:47.812Z,19.07
2019-03-28T10:06:16.966Z,17.40
2019-03-28T10:08:46.109Z,18.17
2019-03-28T10:11:15.282Z,19.92
2019-03-28T10:13:45.498Z,20.32
2019-03-28T10:16:14.671Z,19.82
2019-03-28T10:18:43.810Z,20.88
2019-03-28T10:21:12.990Z,15.00
2019-03-28T10:23:42.144Z,15.45
2019-03-28T10:26:11.314Z,16.60
2019-03-28T10:28:40.468Z,18.25
2019-03-28T10:31:16.370Z,18.25
2019-03-28T10:33:40.640Z,14.18
2019-03-28T10:36:09.874Z,15.43
2019-03-28T10:38:39.074Z,16.75
2019-03-28T10:41:08.356Z,20.75
2019-03-28T10:43:37.629Z,15.58
2019-03-28T10:46:06.904Z,17.15
2019-03-28T10:48:36.163Z,16.93
2019-03-28T10:51:05.433Z,14.55
2019-03-28T10:53:34.707Z,9.80
2019-03-28T10:56:05.053Z,11.12
2019-03-28T10:58:35.132Z,10.65
2019-03-28T11:01:05.720Z,8.30
2019-03-28T11:03:37.674Z,9.68
2019-03-28T11:06:06.957Z,11.65
2019-03-28T11:08:36.655Z,7.72
2019-03-28T11:11:06.069Z,8.48
2019-03-28T11:13:35.313Z,8.70
2019-03-28T11:16:04.591Z,12.45
2019-03-28T11:18:33.850Z,10.68
2019-03-28T11:21:03.121Z,9.98
2019-03-28T11:23:32.700Z,9.30
2019-03-28T11:26:02.040Z,13.88
2019-03-28T11:28:32.463Z,9.03
2019-03-28T11:31:01.738Z,6.70
2019-03-28T11:33:30.989Z,5.45
2019-03-28T11:36:01.521Z,5.55
2019-03-28T11:38:30.782Z,6.70
2019-03-28T11:41:00.046Z,6.55
2019-03-28T11:43:29.293Z,7.75
2019-03-28T11:45:58.567Z,6.87
2019-03-28T11:48:27.816Z,5.75
2019-03-28T11:50:57.083Z,8.28
2019-03-28T11:53:26.338Z,4.45
2019-03-28T11:55:55.609Z,4.65
2019-03-28T11:58:24.854Z,4.83
2019-03-28T12:00:54.122Z,4.37
2019-03-28T12:03:23.372Z,5.17
2019-03-28T12:05:53.245Z,7.92
2019-03-28T12:08:22.603Z,8.30
2019-03-28T12:10:52.838Z,6.37
2019-03-28T12:13:22.099Z,6.35
2019-03-28T12:15:51.366Z,5.83
2019-03-28T12:18:20.614Z,6.70
2019-03-28T12:20:49.881Z,7.20
2019-03-28T12:23:19.131Z,6.58
2019-03-28T12:25:48.402Z,6.90
2019-03-28T12:28:17.668Z,6.80
2019-03-28T12:30:46.923Z,9.35
2019-03-28T12:33:16.181Z,8.88
2019-03-28T12:35:46.327Z,6.85
2019-03-28T12:38:15.600Z,7.35
2019-03-28T12:40:44.856Z,5.22
2019-03-28T12:43:14.114Z,7.75
2019-03-28T12:45:43.371Z,6.08
2019-03-28T12:48:12.645Z,4.92
2019-03-28T12:50:41.899Z,5.62
2019-03-28T12:53:11.231Z,6.47
2019-03-28T12:55:40.438Z,6.47
2019-03-28T12:58:09.706Z,7.25
2019-03-28T13:00:38.953Z,4.22
2019-03-28T13:03:08.158Z,3.95
2019-03-28T13:05:37.415Z,5.05
2019-03-28T13:08:06.704Z,4.42
2019-03-28T13:10:35.946Z,7.53
2019-03-28T13:13:05.284Z,7.87
2019-03-28T13:15:34.548Z,6.60
2019-03-28T13:18:03.894Z,6.22
2019-03-28T13:20:33.139Z,5.05
2019-03-28T13:23:02.405Z,5.55
2019-03-28T13:25:31.661Z,5.65
2019-03-28T13:28:00.925Z,8.20
2019-03-28T13:34:16.133Z,6.12
2019-03-28T13:36:45.386Z,5.78
2019-03-28T13:39:14.650Z,7.28
2019-03-28T13:41:44.470Z,5.10
2019-03-28T13:44:15.054Z,8.30
2019-03-28T13:46:44.302Z,6.22
2019-03-28T13:49:13.574Z,6.42
2019-03-28T13:51:42.826Z,5.92
2019-03-28T13:54:12.097Z,6.53
2019-03-28T13:56:41.343Z,8.13
2019-03-28T13:59:10.605Z,5.40
2019-03-28T14:01:39.802Z,4.97
2019-03-28T14:04:09.061Z,5.30
2019-03-28T14:06:38.319Z,5.20
2019-03-28T14:09:07.581Z,6.58
2019-03-28T14:11:36.997Z,4.90
2019-03-28T14:14:06.263Z,7.05
2019-03-28T14:16:35.513Z,7.10
2019-03-28T14:19:04.790Z,6.15
2019-03-28T14:21:34.065Z,4.75
2019-03-28T14:24:03.330Z,6.30
2019-03-28T14:26:33.670Z,7.10
2019-03-28T14:29:02.948Z,6.08
2019-03-28T14:31:32.202Z,6.45
2019-03-28T14:34:02.626Z,5.50
2019-03-28T14:36:31.930Z,5.78
2019-03-28T14:39:02.140Z,6.08
2019-03-28T14:41:32.469Z,6.33
2019-03-28T14:44:02.464Z,5.95
2019-03-28T14:46:31.811Z,5.80
2019-03-28T14:49:01.258Z,5.10
2019-03-28T14:51:30.539Z,6.90
2019-03-28T14:53:59.806Z,6.17
2019-03-28T14:56:29.065Z,3.75
2019-03-28T14:58:58.612Z,3.80
2019-03-28T15:01:28.120Z,6.12
2019-03-28T15:03:57.369Z,3.40
2019-03-28T15:06:26.635Z,4.75
2019-03-28T15:08:55.898Z,7.83
2019-03-28T15:11:25.170Z,4.80
2019-03-28T15:13:54.430Z,5.22
2019-03-28T15:16:23.701Z,6.87
2019-03-28T15:18:52.951Z,8.30
2019-03-28T15:21:22.211Z,4.80
2019-03-28T15:23:51.471Z,5.67
2019-03-28T15:26:20.731Z,5.87
2019-03-28T15:28:49.995Z,6.67
2019-03-28T15:31:19.251Z,5.40
2019-03-28T15:33:48.506Z,7.28
2019-03-28T15:36:17.770Z,4.42
2019-03-28T15:38:47.026Z,5.15
2019-03-28T15:41:18.323Z,5.62
2019-03-28T15:43:47.577Z,5.78
2019-03-28T15:46:16.850Z,3.77
2019-03-28T15:48:46.165Z,4.22
2019-03-28T15:51:15.450Z,3.22
2019-03-28T15:53:44.707Z,5.35
2019-03-28T15:56:13.991Z,4.28
2019-03-28T15:58:43.234Z,3.67
2019-03-28T16:01:12.498Z,4.05
2019-03-28T16:03:52.441Z,6.65
2019-03-28T16:06:12.656Z,5.78
2019-03-28T16:08:41.901Z,8.70
2019-03-28T16:11:11.175Z,4.45
2019-03-28T16:13:40.426Z,5.35
2019-03-28T16:16:09.699Z,3.67
2019-03-28T16:18:39.537Z,4.12
2019-03-28T16:21:09.123Z,4.70
2019-03-28T16:23:39.282Z,5.17
2019-03-28T16:26:08.558Z,4.33
2019-03-28T16:28:38.911Z,4.95
2019-03-28T16:31:08.161Z,3.58
2019-03-28T16:33:37.420Z,5.33
2019-03-28T16:36:06.693Z,4.72
2019-03-28T16:38:35.947Z,4.12
2019-03-28T16:41:05.288Z,3.87
2019-03-28T16:43:34.542Z,7.90
2019-03-28T16:46:03.811Z,3.08
2019-03-28T16:48:33.071Z,4.33
2019-03-28T16:51:02.337Z,4.40
2019-03-28T16:53:31.655Z,3.02
2019-03-28T16:56:00.862Z,2.60
2019-03-28T16:58:30.115Z,3.60
2019-03-28T17:00:59.382Z,6.58
2019-03-28T17:03:28.629Z,2.92
2019-03-28T17:05:57.822Z,5.92
2019-03-28T17:08:46.505Z,3.90
2019-03-28T17:11:15.841Z,2.90
2019-03-28T17:13:46.458Z,4.03
2019-03-28T17:16:16.731Z,3.20
2019-03-28T17:18:46.177Z,3.45
2019-03-28T17:21:15.442Z,4.53
2019-03-28T17:23:44.736Z,3.00
2019-03-28T17:26:13.977Z,7.00
2019-03-28T17:28:43.316Z,9.18
2019-03-28T17:31:12.575Z,4.22
2019-03-28T17:33:41.840Z,4.10
2019-03-28T17:36:12.061Z,9.18
2019-03-28T17:38:41.376Z,3.08
2019-03-28T17:41:10.594Z,6.15
2019-03-28T17:43:39.860Z,3.90
2019-03-28T17:46:12.190Z,4.20
2019-03-28T17:48:40.006Z,3.33
2019-03-28T17:51:09.685Z,5.17
2019-03-28T17:53:39.340Z,3.22
2019-03-28T17:56:08.588Z,3.10
2019-03-28T17:58:37.800Z,4.00
2019-03-28T18:01:07.307Z,3.70
2019-03-28T18:03:36.573Z,4.25
2019-03-28T18:06:05.833Z,2.25
2019-03-28T18:08:35.103Z,3.75
2019-03-28T18:11:04.422Z,4.53
2019-03-28T18:13:33.716Z,3.75
2019-03-28T18:16:02.974Z,3.95
2019-03-28T18:18:32.240Z,3.25
2019-03-28T18:21:01.489Z,2.70
2019-03-28T18:23:30.759Z,3.22
2019-03-28T18:26:00.028Z,2.90
2019-03-28T18:28:31.497Z,3.22
2019-03-28T18:31:00.156Z,4.28
2019-03-28T18:33:29.421Z,4.72
2019-03-28T18:35:58.665Z,3.72
2019-03-28T18:38:30.697Z,2.35
2019-03-28T18:40:58.809Z,2.52
2019-03-28T18:43:28.091Z,3.42
2019-03-28T18:45:57.333Z,3.83
2019-03-28T18:48:30.794Z,2.35
2019-03-28T18:50:57.477Z,2.37
2019-03-28T18:53:26.910Z,3.37
2019-03-28T18:55:56.170Z,2.95
2019-03-28T18:58:25.514Z,3.50
2019-03-28T19:00:54.778Z,2.37
2019-03-28T19:03:24.072Z,2.05
2019-03-28T19:05:53.306Z,2.85
2019-03-28T19:08:22.586Z,3.22
2019-03-28T19:10:51.834Z,1.95
2019-03-28T19:13:21.118Z,1.92
2019-03-28T19:15:50.401Z,2.80
2019-03-28T19:18:19.670Z,6.70
2019-03-28T19:20:48.922Z,3.08
2019-03-28T19:23:18.193Z,6.15
2019-03-28T19:25:47.514Z,4.22
2019-03-28T19:28:28.041Z,3.55
2019-03-28T19:30:47.395Z,3.90
2019-03-28T19:33:16.679Z,4.03
2019-03-28T19:35:46.276Z,2.25
2019-03-28T19:38:17.242Z,3.75
2019-03-28T19:40:49.174Z,11.90
2019-03-28T19:43:20.992Z,12.93
2019-03-28T19:45:49.423Z,6.85
2019-03-28T19:48:18.699Z,4.78
2019-03-28T19:50:47.965Z,3.90
2019-03-28T19:53:17.901Z,4.25
2019-03-28T19:55:47.375Z,3.33
2019-03-28T19:58:17.065Z,2.90
2019-03-28T20:00:46.584Z,3.22
2019-03-28T20:03:15.914Z,3.20
2019-03-28T20:05:48.118Z,2.85
2019-03-28T20:08:18.094Z,2.60
2019-03-28T20:10:47.074Z,5.60
2019-03-28T20:13:16.331Z,5.28
2019-03-28T20:15:45.674Z,4.83
2019-03-28T20:18:15.263Z,7.55
2019-03-28T20:20:44.530Z,3.75
2019-03-28T20:23:13.702Z,4.85
2019-03-28T20:25:43.048Z,4.15
2019-03-28T20:28:14.426Z,3.35
2019-03-28T20:30:43.114Z,3.62
2019-03-28T20:33:12.374Z,5.20
2019-03-28T20:35:41.566Z,7.28
2019-03-28T20:38:13.930Z,3.72
2019-03-28T20:40:43.386Z,3.05
2019-03-28T20:43:12.928Z,3.37
2019-03-28T20:45:42.181Z,5.40
2019-03-28T20:48:11.604Z,3.75
2019-03-28T20:50:40.862Z,4.40
2019-03-28T20:53:10.122Z,5.65
2019-03-28T20:55:39.549Z,5.08
2019-03-28T20:58:10.375Z,5.22
2019-03-28T21:00:42.001Z,8.15
2019-03-28T21:03:11.286Z,6.30
2019-03-28T21:05:41.541Z,5.25
2019-03-28T21:08:10.794Z,6.53
2019-03-28T21:10:40.536Z,5.20
2019-03-28T21:13:12.621Z,5.92
2019-03-28T21:15:47.266Z,6.28
2019-03-28T21:18:16.516Z,6.08
2019-03-28T21:20:45.807Z,4.15
2019-03-28T21:23:15.103Z,5.97
2019-03-28T21:25:44.440Z,8.55
2019-03-28T21:28:14.050Z,5.03
2019-03-28T21:48:26.177Z,5.45
2019-03-28T21:50:57.018Z,6.28
2019-03-28T21:53:26.356Z,7.05
2019-03-28T21:55:57.801Z,10.93
2019-03-28T21:58:28.058Z,5.97
2019-03-28T22:00:57.215Z,7.35
2019-03-28T22:06:48.925Z,7.42
2019-03-28T22:09:18.194Z,6.60
2019-03-28T22:11:47.353Z,7.87
2019-03-28T22:14:16.490Z,6.10
2019-03-28T22:16:45.633Z,7.40
2019-03-28T22:19:14.776Z,6.92
2019-03-28T22:21:43.928Z,7.97
2019-03-28T22:24:13.068Z,6.83
2019-03-28T22:26:42.218Z,4.97
2019-03-28T22:29:11.454Z,10.98
2019-03-28T22:31:40.687Z,8.18
2019-03-28T22:34:09.854Z,10.78
2019-03-28T22:36:38.994Z,8.25
2019-03-28T22:39:08.146Z,10.30
2019-03-28T22:41:37.357Z,12.43
2019-03-28T22:44:06.516Z,11.48
2019-03-28T22:46:38.027Z,8.23
2019-03-28T22:49:06.491Z,8.20
2019-03-28T22:51:35.634Z,8.60
2019-03-28T22:54:04.840Z,8.08
2019-03-28T22:56:33.994Z,10.43
2019-03-28T22:59:04.216Z,8.28
2019-03-28T23:01:33.374Z,8.58
2019-03-28T23:04:02.513Z,9.35
2019-03-28T23:06:31.660Z,9.08
2019-03-28T23:09:00.813Z,11.60
2019-03-28T23:11:31.642Z,10.80
2019-03-28T23:14:00.805Z,8.75
2019-03-28T23:16:30.046Z,7.75
2019-03-28T23:19:00.226Z,11.68
2019-03-28T23:21:29.378Z,9.75
2019-03-28T23:23:58.521Z,9.60
2019-03-28T23:26:27.977Z,10.20
2019-03-28T23:28:57.145Z,10.15
2019-03-28T23:31:27.362Z,8.50
2019-03-28T23:33:56.952Z,9.28
2019-03-28T23:36:26.236Z,9.40
2019-03-28T23:38:55.451Z,8.95
2019-03-28T23:41:24.586Z,10.78
2019-03-28T23:43:53.766Z,9.60
2019-03-28T23:46:23.949Z,9.60
2019-03-28T23:48:53.096Z,9.10
2019-03-28T23:51:22.236Z,15.25
2019-03-28T23:53:51.393Z,9.75
2019-03-28T23:56:20.526Z,12.00
2019-03-28T23:58:49.691Z,10.90
